sensor_id;sensor_type;location;lat;lon;timestamp;P1;durP1;ratioP1;P2;durP2;ratioP2
29006;SDS011;16104;48.642;9.008;2023-05-16T01:00:30;14.27;;;12.43;;
29006;SDS011;16104;48.642;9.008;2023-05-16T01:05:26;17.17;;;13.13;;
29006;SDS011;16104;48.642;9.008;2023-05-16T01:10:22;22.42;;;14.18;;
29006;SDS011;16104;48.642;9.008;2023-05-16T01:15:24;19.75;;;14.88;;
29006;SDS011;16104;48.642;9.008;2023-05-16T02:01:39;33.20;;;22.02;;
29006;SDS011;16104;48.642;9.008;2023-05-16T02:06:35;30.10;;;21.33;;
29006;SDS011;16104;48.642;9.008;2023-05-16T02:11:30;32.40;;;21.92;;
29006;SDS011;16104;48.642;9.008;2023-05-16T03:02:14;39.03;;;26.05;;
29006;SDS011;16104;48.642;9.008;2023-05-16T03:07:10;40.55;;;27.02;;
29006;SDS011;16104;48.642;9.008;2023-05-16T03:12:05;44.80;;;28.90;;
29006;SDS011;16104;48.642;9.008;2023-05-16T03:17:01;44.05;;;28.42;;
29006;SDS011;16104;48.642;9.008;2023-05-16T03:21:56;46.63;;;29.48;;
29006;SDS011;16104;48.642;9.008;2023-05-16T03:26:52;46.15;;;29.42;;
29006;SDS011;16104;48.642;9.008;2023-05-16T03:31:47;44.58;;;28.50;;
29006;SDS011;16104;48.642;9.008;2023-05-16T03:36:43;49.53;;;30.58;;
29006;SDS011;16104;48.642;9.008;2023-05-16T03:41:39;48.78;;;30.58;;
29006;SDS011;16104;48.642;9.008;2023-05-16T03:46:34;48.67;;;29.33;;
29006;SDS011;16104;48.642;9.008;2023-05-16T03:51:30;47.60;;;29.55;;
29006;SDS011;16104;48.642;9.008;2023-05-16T03:56:27;56.03;;;31.33;;
29006;SDS011;16104;48.642;9.008;2023-05-16T04:01:22;51.03;;;32.50;;
29006;SDS011;16104;48.642;9.008;2023-05-16T04:06:18;52.15;;;32.15;;
29006;SDS011;16104;48.642;9.008;2023-05-16T04:11:13;50.97;;;33.03;;
29006;SDS011;16104;48.642;9.008;2023-05-16T04:16:09;49.33;;;30.90;;
29006;SDS011;16104;48.642;9.008;2023-05-16T04:21:04;47.70;;;30.38;;
29006;SDS011;16104;48.642;9.008;2023-05-16T04:26:00;52.38;;;30.70;;
29006;SDS011;16104;48.642;9.008;2023-05-16T04:30:55;43.13;;;28.77;;
29006;SDS011;16104;48.642;9.008;2023-05-16T04:35:51;43.58;;;29.73;;
29006;SDS011;16104;48.642;9.008;2023-05-16T04:40:48;46.88;;;29.33;;
29006;SDS011;16104;48.642;9.008;2023-05-16T04:45:45;44.13;;;29.80;;
29006;SDS011;16104;48.642;9.008;2023-05-16T04:50:41;46.33;;;29.27;;
29006;SDS011;16104;48.642;9.008;2023-05-16T04:55:36;48.67;;;28.75;;
29006;SDS011;16104;48.642;9.008;2023-05-16T05:00:32;46.03;;;29.23;;
29006;SDS011;16104;48.642;9.008;2023-05-16T05:05:27;45.58;;;29.45;;
29006;SDS011;16104;48.642;9.008;2023-05-16T05:10:23;46.63;;;29.35;;
29006;SDS011;16104;48.642;9.008;2023-05-16T05:15:18;44.00;;;28.63;;
29006;SDS011;16104;48.642;9.008;2023-05-16T05:20:14;45.72;;;28.63;;
29006;SDS011;16104;48.642;9.008;2023-05-16T05:25:09;49.22;;;31.42;;
29006;SDS011;16104;48.642;9.008;2023-05-16T05:30:05;45.95;;;29.70;;
29006;SDS011;16104;48.642;9.008;2023-05-16T05:35:01;47.05;;;29.98;;
29006;SDS011;16104;48.642;9.008;2023-05-16T05:39:57;43.50;;;29.20;;
29006;SDS011;16104;48.642;9.008;2023-05-16T05:44:53;45.78;;;29.13;;
29006;SDS011;16104;48.642;9.008;2023-05-16T05:49:49;43.13;;;28.73;;
29006;SDS011;16104;48.642;9.008;2023-05-16T05:54:44;42.50;;;28.13;;
29006;SDS011;16104;48.642;9.008;2023-05-16T05:59:41;41.03;;;27.10;;
29006;SDS011;16104;48.642;9.008;2023-05-16T06:04:36;40.70;;;28.00;;
29006;SDS011;16104;48.642;9.008;2023-05-16T06:09:32;41.55;;;25.90;;
29006;SDS011;16104;48.642;9.008;2023-05-16T06:14:28;38.20;;;25.55;;
29006;SDS011;16104;48.642;9.008;2023-05-16T06:19:23;39.10;;;27.40;;
29006;SDS011;16104;48.642;9.008;2023-05-16T06:24:19;39.38;;;25.00;;
29006;SDS011;16104;48.642;9.008;2023-05-16T06:29:15;36.38;;;25.00;;
29006;SDS011;16104;48.642;9.008;2023-05-16T06:34:11;36.30;;;23.48;;
29006;SDS011;16104;48.642;9.008;2023-05-16T06:39:06;32.03;;;22.85;;
29006;SDS011;16104;48.642;9.008;2023-05-16T06:44:02;32.65;;;22.88;;
29006;SDS011;16104;48.642;9.008;2023-05-16T06:48:58;32.60;;;22.30;;
29006;SDS011;16104;48.642;9.008;2023-05-16T06:53:54;31.27;;;22.02;;
29006;SDS011;16104;48.642;9.008;2023-05-16T06:58:49;28.20;;;20.63;;
29006;SDS011;16104;48.642;9.008;2023-05-16T07:03:45;31.20;;;21.15;;
29006;SDS011;16104;48.642;9.008;2023-05-16T07:08:40;29.15;;;21.60;;
29006;SDS011;16104;48.642;9.008;2023-05-16T07:13:36;29.77;;;19.85;;
29006;SDS011;16104;48.642;9.008;2023-05-16T07:18:31;31.88;;;20.42;;
29006;SDS011;16104;48.642;9.008;2023-05-16T07:23:27;29.50;;;19.25;;
29006;SDS011;16104;48.642;9.008;2023-05-16T07:28:22;25.77;;;18.42;;
29006;SDS011;16104;48.642;9.008;2023-05-16T07:33:18;27.30;;;18.65;;
29006;SDS011;16104;48.642;9.008;2023-05-16T07:38:13;23.80;;;18.42;;
29006;SDS011;16104;48.642;9.008;2023-05-16T07:43:09;20.95;;;16.17;;
29006;SDS011;16104;48.642;9.008;2023-05-16T07:48:05;22.65;;;15.88;;
29006;SDS011;16104;48.642;9.008;2023-05-16T07:53:00;20.38;;;16.33;;
29006;SDS011;16104;48.642;9.008;2023-05-16T07:57:56;21.40;;;15.35;;
29006;SDS011;16104;48.642;9.008;2023-05-16T08:02:51;20.50;;;13.55;;
29006;SDS011;16104;48.642;9.008;2023-05-16T08:07:47;19.08;;;14.02;;
29006;SDS011;16104;48.642;9.008;2023-05-16T08:12:42;20.83;;;14.05;;
29006;SDS011;16104;48.642;9.008;2023-05-16T08:17:38;18.83;;;13.32;;
29006;SDS011;16104;48.642;9.008;2023-05-16T08:22:33;19.73;;;14.27;;
29006;SDS011;16104;48.642;9.008;2023-05-16T08:27:29;21.15;;;14.80;;
29006;SDS011;16104;48.642;9.008;2023-05-16T08:32:25;19.23;;;14.48;;
29006;SDS011;16104;48.642;9.008;2023-05-16T08:37:20;18.40;;;13.07;;
29006;SDS011;16104;48.642;9.008;2023-05-16T08:42:16;17.05;;;13.18;;
29006;SDS011;16104;48.642;9.008;2023-05-16T08:47:12;16.38;;;11.82;;
29006;SDS011;16104;48.642;9.008;2023-05-16T08:52:12;17.92;;;12.80;;
29006;SDS011;16104;48.642;9.008;2023-05-16T08:57:13;19.65;;;13.32;;
29006;SDS011;16104;48.642;9.008;2023-05-16T09:02:10;19.00;;;13.77;;
29006;SDS011;16104;48.642;9.008;2023-05-16T09:07:05;18.75;;;13.82;;
29006;SDS011;16104;48.642;9.008;2023-05-16T09:12:01;22.08;;;14.80;;
29006;SDS011;16104;48.642;9.008;2023-05-16T09:17:03;21.13;;;15.88;;
29006;SDS011;16104;48.642;9.008;2023-05-16T09:22:00;24.85;;;15.88;;
29006;SDS011;16104;48.642;9.008;2023-05-16T09:26:57;23.58;;;16.77;;
29006;SDS011;16104;48.642;9.008;2023-05-16T09:32:11;23.73;;;16.58;;
29006;SDS011;16104;48.642;9.008;2023-05-16T09:37:09;20.25;;;16.15;;
29006;SDS011;16104;48.642;9.008;2023-05-16T09:42:09;24.35;;;15.90;;
29006;SDS011;16104;48.642;9.008;2023-05-16T09:47:06;21.08;;;15.27;;
29006;SDS011;16104;48.642;9.008;2023-05-16T09:52:02;22.45;;;15.32;;
29006;SDS011;16104;48.642;9.008;2023-05-16T09:56:58;23.55;;;15.93;;
29006;SDS011;16104;48.642;9.008;2023-05-16T10:01:56;20.90;;;16.10;;
29006;SDS011;16104;48.642;9.008;2023-05-16T10:06:55;21.98;;;15.57;;
29006;SDS011;16104;48.642;9.008;2023-05-16T10:11:53;20.00;;;15.20;;
29006;SDS011;16104;48.642;9.008;2023-05-16T10:16:50;23.77;;;15.52;;
29006;SDS011;16104;48.642;9.008;2023-05-16T10:21:47;21.20;;;15.43;;
29006;SDS011;16104;48.642;9.008;2023-05-16T10:26:46;23.48;;;14.93;;
29006;SDS011;16104;48.642;9.008;2023-05-16T10:31:42;19.70;;;13.95;;
29006;SDS011;16104;48.642;9.008;2023-05-16T10:36:38;23.42;;;15.27;;
29006;SDS011;16104;48.642;9.008;2023-05-16T10:41:34;20.17;;;13.82;;
29006;SDS011;16104;48.642;9.008;2023-05-16T10:46:30;17.88;;;12.73;;
29006;SDS011;16104;48.642;9.008;2023-05-16T10:51:32;20.00;;;14.65;;
29006;SDS011;16104;48.642;9.008;2023-05-16T10:56:31;16.13;;;11.82;;
29006;SDS011;16104;48.642;9.008;2023-05-16T11:01:28;16.77;;;12.30;;
29006;SDS011;16104;48.642;9.008;2023-05-16T11:17:01;14.35;;;10.27;;
29006;SDS011;16104;48.642;9.008;2023-05-16T11:22:20;12.25;;;9.85;;
29006;SDS011;16104;48.642;9.008;2023-05-16T11:27:20;11.70;;;9.35;;
29006;SDS011;16104;48.642;9.008;2023-05-16T11:32:20;9.93;;;8.18;;
29006;SDS011;16104;48.642;9.008;2023-05-16T11:37:17;9.00;;;6.82;;
29006;SDS011;16104;48.642;9.008;2023-05-16T11:42:14;11.27;;;6.80;;
29006;SDS011;16104;48.642;9.008;2023-05-16T11:47:09;11.80;;;7.90;;
29006;SDS011;16104;48.642;9.008;2023-05-16T11:52:06;11.32;;;8.13;;
29006;SDS011;16104;48.642;9.008;2023-05-16T11:57:03;10.48;;;8.00;;
29006;SDS011;16104;48.642;9.008;2023-05-16T12:02:01;11.35;;;8.00;;
29006;SDS011;16104;48.642;9.008;2023-05-16T12:06:59;10.85;;;7.28;;
29006;SDS011;16104;48.642;9.008;2023-05-16T12:11:55;8.77;;;6.40;;
29006;SDS011;16104;48.642;9.008;2023-05-16T12:16:51;9.30;;;6.70;;
29006;SDS011;16104;48.642;9.008;2023-05-16T12:21:50;9.45;;;7.30;;
29006;SDS011;16104;48.642;9.008;2023-05-16T12:26:47;8.00;;;6.73;;
29006;SDS011;16104;48.642;9.008;2023-05-16T12:31:42;10.13;;;6.65;;
29006;SDS011;16104;48.642;9.008;2023-05-16T12:36:38;28.65;;;17.38;;
29006;SDS011;16104;48.642;9.008;2023-05-16T12:41:33;7.97;;;6.00;;
29006;SDS011;16104;48.642;9.008;2023-05-16T12:46:39;7.80;;;5.72;;
29006;SDS011;16104;48.642;9.008;2023-05-16T12:51:36;8.45;;;5.90;;
29006;SDS011;16104;48.642;9.008;2023-05-16T12:56:31;6.45;;;4.97;;
29006;SDS011;16104;48.642;9.008;2023-05-16T13:01:27;5.78;;;4.05;;
29006;SDS011;16104;48.642;9.008;2023-05-16T13:06:22;4.20;;;3.40;;
29006;SDS011;16104;48.642;9.008;2023-05-16T13:11:18;3.95;;;3.63;;
29006;SDS011;16104;48.642;9.008;2023-05-16T13:16:13;5.00;;;4.10;;
29006;SDS011;16104;48.642;9.008;2023-05-16T13:21:09;4.63;;;3.88;;
29006;SDS011;16104;48.642;9.008;2023-05-16T13:26:05;6.68;;;4.22;;
29006;SDS011;16104;48.642;9.008;2023-05-16T13:31:00;6.40;;;3.80;;
29006;SDS011;16104;48.642;9.008;2023-05-16T13:35:56;4.25;;;3.83;;
29006;SDS011;16104;48.642;9.008;2023-05-16T13:40:51;7.45;;;4.07;;
29006;SDS011;16104;48.642;9.008;2023-05-16T13:45:47;4.47;;;3.50;;
29006;SDS011;16104;48.642;9.008;2023-05-16T13:50:42;4.78;;;3.30;;
29006;SDS011;16104;48.642;9.008;2023-05-16T13:55:38;7.55;;;3.03;;
29006;SDS011;16104;48.642;9.008;2023-05-16T14:00:33;6.78;;;2.92;;
29006;SDS011;16104;48.642;9.008;2023-05-16T14:05:29;3.72;;;2.70;;
29006;SDS011;16104;48.642;9.008;2023-05-16T14:10:25;5.80;;;2.80;;
29006;SDS011;16104;48.642;9.008;2023-05-16T14:15:21;2.88;;;2.60;;
29006;SDS011;16104;48.642;9.008;2023-05-16T14:20:16;5.60;;;4.50;;
29006;SDS011;16104;48.642;9.008;2023-05-16T14:25:12;6.05;;;3.58;;
29006;SDS011;16104;48.642;9.008;2023-05-16T14:30:08;5.93;;;2.83;;
29006;SDS011;16104;48.642;9.008;2023-05-16T14:35:03;8.55;;;2.50;;
29006;SDS011;16104;48.642;9.008;2023-05-16T14:39:59;4.63;;;2.83;;
29006;SDS011;16104;48.642;9.008;2023-05-16T14:44:55;4.25;;;2.92;;
29006;SDS011;16104;48.642;9.008;2023-05-16T14:49:50;4.63;;;3.28;;
29006;SDS011;16104;48.642;9.008;2023-05-16T14:54:48;3.33;;;2.20;;
29006;SDS011;16104;48.642;9.008;2023-05-16T14:59:43;4.45;;;2.28;;
29006;SDS011;16104;48.642;9.008;2023-05-16T15:04:39;4.28;;;2.25;;
29006;SDS011;16104;48.642;9.008;2023-05-16T15:09:34;4.03;;;2.30;;
29006;SDS011;16104;48.642;9.008;2023-05-16T15:14:30;4.38;;;1.83;;
29006;SDS011;16104;48.642;9.008;2023-05-16T15:19:25;3.45;;;2.38;;
29006;SDS011;16104;48.642;9.008;2023-05-16T15:24:21;4.53;;;2.20;;
29006;SDS011;16104;48.642;9.008;2023-05-16T15:29:16;3.97;;;2.40;;
29006;SDS011;16104;48.642;9.008;2023-05-16T15:34:13;3.33;;;2.30;;
29006;SDS011;16104;48.642;9.008;2023-05-16T15:39:09;2.70;;;1.90;;
29006;SDS011;16104;48.642;9.008;2023-05-16T15:44:04;4.63;;;2.30;;
29006;SDS011;16104;48.642;9.008;2023-05-16T15:49:00;6.68;;;2.55;;
29006;SDS011;16104;48.642;9.008;2023-05-16T15:53:55;6.60;;;2.20;;
29006;SDS011;16104;48.642;9.008;2023-05-16T15:58:52;4.82;;;2.28;;
29006;SDS011;16104;48.642;9.008;2023-05-16T16:03:49;4.80;;;2.58;;
29006;SDS011;16104;48.642;9.008;2023-05-16T16:08:45;13.02;;;2.40;;
29006;SDS011;16104;48.642;9.008;2023-05-16T16:13:40;10.07;;;2.70;;
29006;SDS011;16104;48.642;9.008;2023-05-16T16:18:36;4.45;;;2.22;;
29006;SDS011;16104;48.642;9.008;2023-05-16T16:23:31;5.20;;;2.17;;
29006;SDS011;16104;48.642;9.008;2023-05-16T16:28:27;7.10;;;2.30;;
29006;SDS011;16104;48.642;9.008;2023-05-16T16:33:22;8.20;;;2.53;;
29006;SDS011;16104;48.642;9.008;2023-05-16T16:38:18;6.35;;;2.10;;
29006;SDS011;16104;48.642;9.008;2023-05-16T16:43:13;3.60;;;1.77;;
29006;SDS011;16104;48.642;9.008;2023-05-16T16:48:09;5.65;;;2.08;;
29006;SDS011;16104;48.642;9.008;2023-05-16T16:53:05;5.13;;;2.13;;
29006;SDS011;16104;48.642;9.008;2023-05-16T16:58:00;6.20;;;2.78;;
29006;SDS011;16104;48.642;9.008;2023-05-16T17:02:57;6.25;;;2.20;;
29006;SDS011;16104;48.642;9.008;2023-05-16T17:07:53;12.73;;;2.67;;
29006;SDS011;16104;48.642;9.008;2023-05-16T17:12:48;3.38;;;1.67;;
29006;SDS011;16104;48.642;9.008;2023-05-16T17:17:44;4.13;;;2.17;;
29006;SDS011;16104;48.642;9.008;2023-05-16T17:22:40;7.95;;;1.95;;
29006;SDS011;16104;48.642;9.008;2023-05-16T17:27:36;8.40;;;1.88;;
29006;SDS011;16104;48.642;9.008;2023-05-16T17:32:31;7.55;;;2.10;;
29006;SDS011;16104;48.642;9.008;2023-05-16T17:37:27;4.47;;;1.80;;
29006;SDS011;16104;48.642;9.008;2023-05-16T17:42:23;5.00;;;1.77;;
29006;SDS011;16104;48.642;9.008;2023-05-16T17:47:18;4.05;;;1.50;;
29006;SDS011;16104;48.642;9.008;2023-05-16T17:52:14;5.13;;;1.80;;
29006;SDS011;16104;48.642;9.008;2023-05-16T17:57:10;3.42;;;1.90;;
29006;SDS011;16104;48.642;9.008;2023-05-16T18:02:05;5.85;;;2.20;;
29006;SDS011;16104;48.642;9.008;2023-05-16T18:07:03;4.68;;;1.60;;
29006;SDS011;16104;48.642;9.008;2023-05-16T18:11:59;5.47;;;1.65;;
29006;SDS011;16104;48.642;9.008;2023-05-16T18:16:55;3.75;;;1.40;;
29006;SDS011;16104;48.642;9.008;2023-05-16T18:21:50;3.75;;;1.55;;
29006;SDS011;16104;48.642;9.008;2023-05-16T18:26:46;4.07;;;1.67;;
29006;SDS011;16104;48.642;9.008;2023-05-16T18:31:43;3.45;;;1.40;;
29006;SDS011;16104;48.642;9.008;2023-05-16T18:36:38;3.15;;;1.80;;
29006;SDS011;16104;48.642;9.008;2023-05-16T18:41:34;5.43;;;1.33;;
29006;SDS011;16104;48.642;9.008;2023-05-16T18:46:30;4.57;;;1.50;;
29006;SDS011;16104;48.642;9.008;2023-05-16T18:51:25;4.78;;;1.20;;
29006;SDS011;16104;48.642;9.008;2023-05-16T18:56:21;7.70;;;1.40;;
29006;SDS011;16104;48.642;9.008;2023-05-16T19:01:16;4.25;;;1.33;;
29006;SDS011;16104;48.642;9.008;2023-05-16T19:06:16;6.60;;;1.65;;
29006;SDS011;16104;48.642;9.008;2023-05-16T19:11:11;3.90;;;1.48;;
29006;SDS011;16104;48.642;9.008;2023-05-16T19:16:07;3.40;;;1.35;;
29006;SDS011;16104;48.642;9.008;2023-05-16T19:21:02;4.65;;;1.58;;
29006;SDS011;16104;48.642;9.008;2023-05-16T19:25:58;3.38;;;1.35;;
29006;SDS011;16104;48.642;9.008;2023-05-16T19:30:54;6.80;;;1.90;;
29006;SDS011;16104;48.642;9.008;2023-05-16T19:35:50;8.13;;;1.65;;
29006;SDS011;16104;48.642;9.008;2023-05-16T19:40:46;2.92;;;1.27;;
29006;SDS011;16104;48.642;9.008;2023-05-16T19:45:42;4.80;;;1.35;;
29006;SDS011;16104;48.642;9.008;2023-05-16T19:50:37;2.72;;;1.20;;
29006;SDS011;16104;48.642;9.008;2023-05-16T19:55:34;3.78;;;1.40;;
29006;SDS011;16104;48.642;9.008;2023-05-16T20:00:31;4.88;;;1.25;;
29006;SDS011;16104;48.642;9.008;2023-05-16T20:05:26;4.50;;;1.35;;
29006;SDS011;16104;48.642;9.008;2023-05-16T20:10:22;4.95;;;1.35;;
29006;SDS011;16104;48.642;9.008;2023-05-16T20:15:17;5.90;;;1.58;;
29006;SDS011;16104;48.642;9.008;2023-05-16T20:20:13;3.63;;;1.20;;
29006;SDS011;16104;48.642;9.008;2023-05-16T20:25:09;3.42;;;1.10;;
29006;SDS011;16104;48.642;9.008;2023-05-16T20:30:05;3.85;;;1.10;;
29006;SDS011;16104;48.642;9.008;2023-05-16T20:35:01;5.18;;;0.80;;
29006;SDS011;16104;48.642;9.008;2023-05-16T20:40:02;6.80;;;2.28;;
29006;SDS011;16104;48.642;9.008;2023-05-16T20:44:59;4.32;;;1.38;;
29006;SDS011;16104;48.642;9.008;2023-05-16T20:49:55;5.38;;;1.10;;
29006;SDS011;16104;48.642;9.008;2023-05-16T20:54:50;3.08;;;1.25;;
29006;SDS011;16104;48.642;9.008;2023-05-16T20:59:46;4.57;;;1.23;;
29006;SDS011;16104;48.642;9.008;2023-05-16T21:04:41;3.22;;;1.00;;
29006;SDS011;16104;48.642;9.008;2023-05-16T21:09:37;2.80;;;1.50;;
29006;SDS011;16104;48.642;9.008;2023-05-16T21:14:33;2.33;;;1.00;;
29006;SDS011;16104;48.642;9.008;2023-05-16T21:19:29;4.47;;;1.40;;
29006;SDS011;16104;48.642;9.008;2023-05-16T21:24:28;4.20;;;1.33;;
29006;SDS011;16104;48.642;9.008;2023-05-16T21:29:24;4.15;;;1.20;;
29006;SDS011;16104;48.642;9.008;2023-05-16T21:34:19;3.17;;;1.17;;
29006;SDS011;16104;48.642;9.008;2023-05-16T21:39:15;2.42;;;1.00;;
29006;SDS011;16104;48.642;9.008;2023-05-16T21:44:10;6.75;;;1.40;;
29006;SDS011;16104;48.642;9.008;2023-05-16T21:49:11;4.45;;;1.05;;
29006;SDS011;16104;48.642;9.008;2023-05-16T21:54:06;3.70;;;0.90;;
29006;SDS011;16104;48.642;9.008;2023-05-16T21:59:02;5.38;;;1.23;;
29006;SDS011;16104;48.642;9.008;2023-05-16T22:03:57;4.18;;;1.10;;
29006;SDS011;16104;48.642;9.008;2023-05-16T22:08:53;2.72;;;1.10;;
29006;SDS011;16104;48.642;9.008;2023-05-16T22:13:48;5.47;;;1.00;;
29006;SDS011;16104;48.642;9.008;2023-05-16T22:18:44;3.15;;;0.93;;
29006;SDS011;16104;48.642;9.008;2023-05-16T22:23:40;3.95;;;1.20;;
29006;SDS011;16104;48.642;9.008;2023-05-16T22:28:35;2.60;;;1.13;;
29006;SDS011;16104;48.642;9.008;2023-05-16T22:33:31;3.72;;;1.17;;
29006;SDS011;16104;48.642;9.008;2023-05-16T22:38:26;2.72;;;1.10;;
29006;SDS011;16104;48.642;9.008;2023-05-16T22:43:22;5.03;;;1.20;;
29006;SDS011;16104;48.642;9.008;2023-05-16T22:48:17;4.20;;;1.15;;
29006;SDS011;16104;48.642;9.008;2023-05-16T22:53:13;4.43;;;1.15;;
29006;SDS011;16104;48.642;9.008;2023-05-16T22:58:08;5.30;;;1.45;;
29006;SDS011;16104;48.642;9.008;2023-05-16T23:03:04;3.30;;;0.98;;
29006;SDS011;16104;48.642;9.008;2023-05-16T23:08:00;4.05;;;1.13;;
29006;SDS011;16104;48.642;9.008;2023-05-16T23:12:57;2.70;;;1.00;;
29006;SDS011;16104;48.642;9.008;2023-05-16T23:17:52;4.45;;;1.20;;
29006;SDS011;16104;48.642;9.008;2023-05-16T23:22:48;4.18;;;1.15;;
29006;SDS011;16104;48.642;9.008;2023-05-16T23:27:43;4.20;;;1.00;;
29006;SDS011;16104;48.642;9.008;2023-05-16T23:32:39;2.50;;;0.70;;
29006;SDS011;16104;48.642;9.008;2023-05-16T23:37:34;4.53;;;1.33;;
29006;SDS011;16104;48.642;9.008;2023-05-16T23:42:29;4.38;;;1.30;;
29006;SDS011;16104;48.642;9.008;2023-05-16T23:47:25;2.22;;;0.95;;
29006;SDS011;16104;48.642;9.008;2023-05-16T23:52:20;3.53;;;1.17;;
29006;SDS011;16104;48.642;9.008;2023-05-16T23:57:16;3.78;;;1.40;;
